Terminal Aerodrome Forecast
Issued by NWS

Home | Current Version | Previous Version | Graphics & Text | Print | Product List | Glossary On
Versions: 1 2 3 4 5 6 7 8 9 10 11 12 13 14 15 16 17 18 19 20 21 22 23
075
FTUS43 KGRB 171733
TAFAUW
TAF
KAUW 171733Z 1718/1818 19005KT P6SM FEW030
     FM180200 18004KT P6SM SCT045 SCT200
     FM181500 22007KT P6SM FEW035 BKN150=

USA.gov is the U.S. government's official web portal to all federal, state and local government web resources and services.